Racecast

MHSAA LP D1 Region 5 @ Brownstown Woodhaven

Lake Erie Metro Park OFFICIAL · 5000m · Girls · Compiled · MI

103 runners from 1 division

These divisions were run separately. This is how their times compare, not how they finished — the places and scores below were never contested.

View full meet →

Team scores

Place Team Points 12345 67
1 Saline (MI) 42 2 7 8 10 15 21 26
2 Woodhaven Brownstown (MI) 56 4 5 12 16 19 22 23
3 Ann Arbor Pioneer (MI) 65 1 9 17 18 20 46 53
4 Wyandotte Roosevelt (MI) 114 3 6 27 37 41 55 65
5 Monroe (MI) 131 11 14 30 33 43 47 49
6 Temperance Bedford (MI) 139 13 24 32 34 36 51 56
7 Southgate Anderson (MI) 187 28 29 38 44 48 52 62
8 Dearborn (MI) 224 25 35 45 59 60 64 85
9 Dearborn Heights Crestwood (MI) 268 31 40 50 73 74 75 87
10 Belleville (MI) 337 42 63 67 77 88 94 96
11 Gibraltar Carlson (MI) 347 54 58 72 80 83 95
12 Wayne Memorial (MI) 348 57 66 70 76 79 81 99
13 Dearborn Fordson (MI) 374 39 69 78 91 97 98
14 Ypsilanti Lincoln (MI) 396 68 71 82 86 89 100
15 Detroit Western International (MI) 420 61 84 90 92 93

Not scored, fewer than five finishers: Lincoln Park (1), Detroit Cass Tech (1), Dearborn Edsel Ford (1)

Results

Place Athlete Grade School Time Rating Points Actual race
1 Anne Forsyth 9 Ann Arbor Pioneer (MI) 1 18:47.1 133.0 1 1
2 Hannah Cummings 11 Saline (MI) 1 19:03.2 131.1 2 2
3 Robyn Loselle 10 Wyandotte Roosevelt (MI) 1 19:04.2 131.0 3 3
4 Clarissa Hoye 9 Woodhaven Brownstown (MI) 1 19:23.6 128.8 4 4
5 Natalia Milanowski 9 Woodhaven Brownstown (MI) 2 19:45.3 126.5 5 5
6 Maggie Pawelczyk 10 Wyandotte Roosevelt (MI) 2 19:46.0 126.4 6 6
7 Gillian Walter 11 Saline (MI) 2 19:47.5 126.2 7 7
8 Abby Rentschler 12 Saline (MI) 3 19:57.6 125.2 8 8
9 Jacalyn Overdier 10 Ann Arbor Pioneer (MI) 2 20:07.0 124.2 9 9
10 Jessi Larson 9 Saline (MI) 4 20:11.5 123.7 10 10
11 Lydia Malik 9 Monroe (CA) 1 20:19.0 123.0 11 11
12 Arianna Wegienka 9 Woodhaven Brownstown (MI) 3 20:25.1 122.4 12 12
13 Roma Lucarelli 11 Temperance Bedford (MI) 1 20:40.2 120.9 13 13
14 Elisabeth LaPrad 9 Monroe (CA) 2 20:40.4 120.8 14 14
15 Lillie Phelps 11 Saline (MI) 5 20:46.9 120.2 15 15
16 Chloe Hoye 10 Woodhaven Brownstown (MI) 4 20:57.8 119.2 16 16
17 Elizabeth Kos 9 Ann Arbor Pioneer (MI) 3 20:59.9 119.0 17 17
18 Sanelma Heinonen 11 Ann Arbor Pioneer (MI) 4 21:05.2 118.5 18 18
19 Isabella DiMilia 9 Woodhaven Brownstown (MI) 5 21:06.6 118.3 19 19
20 Carrie Duerksen 10 Ann Arbor Pioneer (MI) 5 21:09.1 118.1 20 20
21 Hannah Fischer 10 Saline (MI) 6 21:10.1 118.0 21 21
22 Kendra Cook 12 Woodhaven Brownstown (MI) 6 21:23.1 116.8 22 22
23 Aly Trapp 12 Woodhaven Brownstown (MI) 7 21:26.0 116.6 23 23
24 Amber Wiederhold 10 Temperance Bedford (MI) 2 21:29.5 116.2 24 24
25 Layla Elmokadem 9 Dearborn (MI) 1 21:34.6 115.8 25 25
26 Haleigh Cummings 11 Saline (MI) 7 21:35.1 115.7 26 26
27 Julia Kanack 10 Wyandotte Roosevelt (MI) 3 21:37.7 115.5 27 27
28 Lauren Buckner 9 Southgate Anderson (MI) 1 21:38.2 115.5 28 28
29 Jacqueline Parks 9 Southgate Anderson (MI) 2 21:41.5 115.2 29 29
30 Natalie Maas 11 Monroe (CA) 3 21:50.4 114.4 30 30
31 Jana Hossein 9 Dearborn Heights Crestwood (MI) 1 21:51.4 114.3 31 31
32 Kayla Chmiel 12 Temperance Bedford (MI) 3 21:53.2 114.2 32 32
33 Sidney Towalski 11 Monroe (CA) 4 22:00.8 113.5 33 33
34 Morgan McCormick 11 Temperance Bedford (MI) 4 22:13.8 112.4 34 34
35 Fatima Jomaa 9 Dearborn (MI) 2 22:15.1 112.3 35 35
36 Rachel Boulton 11 Temperance Bedford (MI) 5 22:16.4 112.2 36 36
37 Alyssa Harlow 11 Wyandotte Roosevelt (MI) 4 22:23.9 111.5 37 37
38 Nichole Lapkewych 11 Southgate Anderson (MI) 3 22:27.1 111.3 38 38
39 Israa Ali 10 Dearborn Fordson (MI) 1 22:27.5 111.2 39 39
40 Lina Jebara 11 Dearborn Heights Crestwood (MI) 2 22:28.6 111.2 40 40
41 Melanie Farley 10 Wyandotte Roosevelt (MI) 5 22:35.5 110.6 41 41
42 Emily Mall 12 Belleville (MI) 1 22:37.6 110.4 42 42
43 Autumn Green 10 Monroe (CA) 5 22:40.3 110.2 43 43
44 Morgan Fantow 12 Southgate Anderson (MI) 4 22:44.0 109.9 44 44
45 Noor Chehab 9 Dearborn (MI) 3 22:45.1 109.8 45 45
46 Katherine Riles 10 Ann Arbor Pioneer (MI) 6 22:45.4 109.8 46 46
47 Kasey Mclaughlin 10 Monroe (CA) 6 22:48.4 109.5 47 47
48 LeAnna Richards 12 Southgate Anderson (MI) 5 22:57.6 108.8 48 48
49 Sloane Lynch 11 Monroe (CA) 7 22:58.1 108.8 49 49
50 Heba Ashkar 10 Dearborn Heights Crestwood (MI) 3 23:04.6 108.3 50 50
51 Sam Greeley 12 Temperance Bedford (MI) 6 23:05.0 108.2 51 51
52 Lexi Sinani 10 Southgate Anderson (MI) 6 23:05.5 108.2 52 52
53 Victoria Roberts 10 Ann Arbor Pioneer (MI) 7 23:06.5 108.1 53 53
54 Juanita Gratowski 12 Gibraltar Carlson (MI) 1 23:11.9 107.7 54 54
55 Elizabeth Raupp 11 Wyandotte Roosevelt (MI) 6 23:15.0 107.4 55 55
56 Paige Hallstrom 12 Temperance Bedford (MI) 7 23:17.6 107.2 56 56
57 Shania Cox 10 Lincoln Park (MI) 1 23:37.2 105.8 57
58 Nikita Bhangu 10 Wayne Memorial (MI) 1 23:48.2 105.0 57 58
59 NiJaia Bradley 11 Detroit Cass Tech (MI) 1 23:53.3 104.6 59
60 Alexandra Kaminske 11 Gibraltar Carlson (MI) 2 23:53.8 104.6 58 60
61 Miajune Wurster 12 Dearborn (MI) 4 23:59.1 104.2 59 61
62 Heather Carr 12 Dearborn (MI) 5 24:03.9 103.8 60 62
63 Araceli Zamudio 9 Detroit Western International (MI) 1 24:04.7 103.8 61 63
64 Sydney Martin 11 Southgate Anderson (MI) 7 24:09.6 103.4 62 64
65 Whitney Roll 12 Belleville (MI) 2 24:13.0 103.2 63 65
66 Celine Nasser 9 Dearborn (MI) 6 24:16.4 102.9 64 66
67 Samantha Philips 12 Wyandotte Roosevelt (MI) 7 24:17.2 102.9 65 67
68 Victoria Boyd 12 Wayne Memorial (MI) 2 24:17.8 102.8 66 68
69 Stephanie Farkas 11 Belleville (MI) 3 24:35.9 101.6 67 69
70 Grace Czachorski 9 Ypsilanti Lincoln (MI) 1 24:39.6 101.3 68 70
71 Zahraa Alhabib 10 Dearborn Fordson (MI) 2 24:45.5 100.9 69 71
72 Kelsie Wysong 11 Wayne Memorial (MI) 3 24:52.4 100.4 70 72
73 Kirsten Thomas 10 Ypsilanti Lincoln (MI) 2 25:07.9 99.4 71 73
74 Brooklyn Proudlock 11 Gibraltar Carlson (MI) 3 25:15.7 98.9 72 74
75 Nadine Elayan 10 Dearborn Heights Crestwood (MI) 4 25:20.1 98.6 73 75
76 Alaweih Nadia 10 Dearborn Heights Crestwood (MI) 5 25:21.4 98.5 74 76
77 Judi Siyaj 12 Dearborn Heights Crestwood (MI) 6 25:28.0 98.1 75 77
78 Kendelle Hood 12 Wayne Memorial (MI) 4 25:35.2 97.6 76 78
79 Valenna Malone 12 Belleville (MI) 4 25:55.6 96.4 77 79
80 Iman Silmi 11 Dearborn Fordson (MI) 3 25:56.5 96.3 78 80
81 Jessica Leigh 9 Wayne Memorial (MI) 5 26:00.1 96.1 79 81
82 Rina Chavez 11 Gibraltar Carlson (MI) 4 26:03.3 95.9 80 82
83 Melaina Climer 10 Wayne Memorial (MI) 6 26:09.1 95.5 81 83
84 Grace Swanson 11 Ypsilanti Lincoln (MI) 3 26:10.1 95.5 82 84
85 Julie Hughes 9 Gibraltar Carlson (MI) 5 26:12.9 95.3 83 85
86 Julissa Hernandez 12 Detroit Western International (MI) 2 26:36.2 93.9 84 86
87 Taylor Pare 10 Dearborn (MI) 7 26:37.2 93.8 85 87
88 Cali Curlee 12 Ypsilanti Lincoln (MI) 4 26:37.7 93.8 86 88
89 Dina Aldayyeni 11 Dearborn Heights Crestwood (MI) 7 26:44.9 93.4 87 89
90 Jessica Sterely 9 Belleville (MI) 5 27:08.4 92.1 88 90
91 Jenna Kramarczyk 10 Ypsilanti Lincoln (MI) 5 27:34.4 90.6 89 91
92 Lucy Arias 11 Detroit Western International (MI) 3 27:37.6 90.4 90 92
93 Fatima Dakroub 11 Dearborn Fordson (MI) 4 27:55.8 89.4 91 93
94 Kevina Lewis 9 Detroit Western International (MI) 4 28:07.3 88.8 92 94
95 Angeles Marin 11 Detroit Western International (MI) 5 28:08.9 88.8 93 95
96 Anea Gaskin 12 Belleville (MI) 6 28:11.8 88.6 94 96
97 Megan Harris 9 Gibraltar Carlson (MI) 6 28:36.0 87.3 95 97
98 Brooke Griffith 12 Dearborn Edsel Ford (MI) 1 28:44.8 86.9 98
99 Kennedy Gardner 9 Belleville (MI) 7 29:08.0 85.8 96 99
100 Nour Eidy 11 Dearborn Fordson (MI) 5 30:28.5 82.0 97 100
101 Alessia Sciacca 10 Dearborn Fordson (MI) 6 30:51.6 81.0 98 101
102 Allison Jones 9 Wayne Memorial (MI) 7 31:00.1 80.6 99 102
103 Olivia Dotson 10 Ypsilanti Lincoln (MI) 6 35:06.0 100 103